Map

Track Data

SID SEASON NUMBER BASIN SUBBASIN NAME ISO_TIME NATURE LAT LON WMO_WIND WMO_PRES WMO_AGENCY TRACK_TYPE DIST2LAND LANDFALL IFLAG USA_AGENCY USA_ATCF_ID USA_LAT USA_LON USA_RECORD USA_STATUS USA_WIND USA_PRES USA_SSHS USA_R34_NE USA_R34_SE USA_R34_SW USA_R34_NW USA_R50_NE USA_R50_SE USA_R50_SW USA_R50_NW USA_R64_NE USA_R64_SE USA_R64_SW USA_R64_NW USA_POCI USA_ROCI USA_RMW USA_EYE TOKYO_LAT TOKYO_LON TOKYO_GRADE TOKYO_WIND TOKYO_PRES TOKYO_R50_DIR TOKYO_R50_LONG TOKYO_R50_SHORT TOKYO_R30_DIR TOKYO_R30_LONG TOKYO_R30_SHORT TOKYO_LAND CMA_LAT CMA_LON CMA_CAT CMA_WIND CMA_PRES HKO_LAT HKO_LON HKO_CAT HKO_WIND HKO_PRES NEWDELHI_LAT NEWDELHI_LON NEWDELHI_GRADE NEWDELHI_WIND NEWDELHI_PRES NEWDELHI_CI NEWDELHI_DP NEWDELHI_POCI REUNION_LAT REUNION_LON REUNION_TYPE REUNION_WIND REUNION_PRES REUNION_TNUM REUNION_CI REUNION_RMW REUNION_R34_NE REUNION_R34_SE REUNION_R34_SW REUNION_R34_NW REUNION_R50_NE REUNION_R50_SE REUNION_R50_SW REUNION_R50_NW REUNION_R64_NE REUNION_R64_SE REUNION_R64_SW REUNION_R64_NW BOM_LAT BOM_LON BOM_TYPE BOM_WIND BOM_PRES BOM_TNUM BOM_CI BOM_RMW BOM_R34_NE BOM_R34_SE BOM_R34_SW BOM_R34_NW BOM_R50_NE BOM_R50_SE BOM_R50_SW BOM_R50_NW BOM_R64_NE BOM_R64_SE BOM_R64_SW BOM_R64_NW BOM_ROCI BOM_POCI BOM_EYE BOM_POS_METHOD BOM_PRES_METHOD NADI_LAT NADI_LON NADI_CAT NADI_WIND NADI_PRES WELLINGTON_LAT WELLINGTON_LON WELLINGTON_WIND WELLINGTON_PRES DS824_LAT DS824_LON DS824_STAGE DS824_WIND DS824_PRES TD9636_LAT TD9636_LON TD9636_STAGE TD9636_WIND TD9636_PRES TD9635_LAT TD9635_LON TD9635_WIND TD9635_PRES TD9635_ROCI NEUMANN_LAT NEUMANN_LON NEUMANN_CLASS NEUMANN_WIND NEUMANN_PRES MLC_LAT MLC_LON MLC_CLASS MLC_WIND MLC_PRES USA_GUST BOM_GUST BOM_GUST_PER REUNION_GUST REUNION_GUST_PER USA_SEAHGT USA_SEARAD_NE USA_SEARAD_SE USA_SEARAD_SW USA_SEARAD_NW STORM_SPEED STORM_DIR
1936239N13335 1936 41 NA NA NOT_NAMED 1936-08-25 18:00:00 TS 13.3000 -25.5000 30 hurdat_atl main 877 877 O_____________ hurdat_atl AL101936 13.3000 -25.5000 TD 30 -1 15 282
1936239N13335 1936 41 NA NA NOT_NAMED 1936-08-25 21:00:00 TS 13.4504 -26.2498 main 948 948 P_____________ AL101936 13.4504 -26.2498 TD 30 -1 15 282
1936239N13335 1936 41 NA NA NOT_NAMED 1936-08-26 00:00:00 TS 13.6000 -27.0000 30 hurdat_atl main 1032 1032 O_____________ hurdat_atl AL101936 13.6000 -27.0000 TD 30 -1 15 282
1936239N13335 1936 41 NA NA NOT_NAMED 1936-08-26 03:00:00 TS 13.7498 -27.7501 main 1116 1115 P_____________ AL101936 13.7498 -27.7501 TD 32 -1 15 282
1936239N13335 1936 41 NA NA NOT_NAMED 1936-08-26 06:00:00 TS 13.9000 -28.5000 35 hurdat_atl main 1189 1189 O_____________ hurdat_atl AL101936 13.9000 -28.5000 TS 35 0 15 282
1936239N13335 1936 41 NA NA NOT_NAMED 1936-08-26 09:00:00 TS 14.0498 -29.2501 main 1274 1273 P_____________ AL101936 14.0498 -29.2501 TS 35 0 15 282
1936239N13335 1936 41 NA NA NOT_NAMED 1936-08-26 12:00:00 TS 14.2000 -30.0000 35 hurdat_atl main 1347 1347 O_____________ hurdat_atl AL101936 14.2000 -30.0000 TS 35 0 15 281
1936239N13335 1936 41 NA NA NOT_NAMED 1936-08-26 15:00:00 TS 14.3423 -30.7502 main 1432 1432 P_____________ AL101936 14.3423 -30.7502 TS 37 0 15 282
1936239N13335 1936 41 NA NA NOT_NAMED 1936-08-26 18:00:00 TS 14.5000 -31.5000 40 hurdat_atl main 1507 1507 O_____________ hurdat_atl AL101936 14.5000 -31.5000 TS 40 0 15 284
1936239N13335 1936 41 NA NA NOT_NAMED 1936-08-26 21:00:00 TS 14.6923 -32.2501 main 1592 1592 P_____________ AL101936 14.6923 -32.2501 TS 40 0 15 285
1936239N13335 1936 41 NA NA NOT_NAMED 1936-08-27 00:00:00 TS 14.9000 -33.0000 40 hurdat_atl main 1666 1666 O_____________ hurdat_atl AL101936 14.9000 -33.0000 TS 40 0 15 286
1936239N13335 1936 41 NA NA NOT_NAMED 1936-08-27 03:00:00 TS 15.0998 -33.7501 main 1752 1752 P_____________ AL101936 15.0998 -33.7501 TS 42 0 15 285
1936239N13335 1936 41 NA NA NOT_NAMED 1936-08-27 06:00:00 TS 15.3000 -34.5000 45 hurdat_atl main 1827 1827 O_____________ hurdat_atl AL101936 15.3000 -34.5000 TS 45 0 15 285
1936239N13335 1936 41 NA NA NOT_NAMED 1936-08-27 09:00:00 TS 15.4997 -35.2501 main 1913 1913 P_____________ AL101936 15.4997 -35.2501 TS 45 0 15 285
1936239N13335 1936 41 NA NA NOT_NAMED 1936-08-27 12:00:00 TS 15.7000 -36.0000 45 hurdat_atl main 1988 1988 O_____________ hurdat_atl AL101936 15.7000 -36.0000 TS 45 0 15 285
1936239N13335 1936 41 NA NA NOT_NAMED 1936-08-27 15:00:00 TS 15.8997 -36.7501 main 2049 2005 P_____________ AL101936 15.8997 -36.7501 TS 47 0 15 286
1936239N13335 1936 41 NA NA NOT_NAMED 1936-08-27 18:00:00 TS 16.1000 -37.5000 50 hurdat_atl main 2005 1963 O_____________ hurdat_atl AL101936 16.1000 -37.5000 TS 50 0 15 286
1936239N13335 1936 41 NA NA NOT_NAMED 1936-08-27 21:00:00 TS 16.2997 -38.2502 main 1955 1916 P_____________ AL101936 16.2997 -38.2502 TS 52 0 15 286
1936239N13335 1936 41 NA NA NOT_NAMED 1936-08-28 00:00:00 TS 16.5000 -39.0000 55 hurdat_atl main 1916 1879 O_____________ hurdat_atl AL101936 16.5000 -39.0000 TS 55 0 15 286
1936239N13335 1936 41 NA NA NOT_NAMED 1936-08-28 03:00:00 TS 16.7072 -39.7501 main 1872 1838 P_____________ AL101936 16.7072 -39.7501 TS 57 0 15 286
1936239N13335 1936 41 NA NA NOT_NAMED 1936-08-28 06:00:00 TS 16.9000 -40.5000 60 hurdat_atl main 1838 1799 O_____________ hurdat_atl AL101936 16.9000 -40.5000 TS 60 0 15 284
1936239N13335 1936 41 NA NA NOT_NAMED 1936-08-28 09:00:00 TS 17.0575 -41.2726 main 1801 1765 P_____________ AL101936 17.0575 -41.2726 TS 60 0 15 282
1936239N13335 1936 41 NA NA NOT_NAMED 1936-08-28 12:00:00 TS 17.2000 -42.0000 60 hurdat_atl main 1765 1737 O_____________ hurdat_atl AL101936 17.2000 -42.0000 TS 60 0 13 283
1936239N13335 1936 41 NA NA NOT_NAMED 1936-08-28 15:00:00 TS 17.3572 -42.6375 main 1746 1715 P_____________ AL101936 17.3572 -42.6375 TS 62 0 12 285
1936239N13335 1936 41 NA NA NOT_NAMED 1936-08-28 18:00:00 TS 17.5000 -43.2000 65 hurdat_atl main 1715 1693 O_____________ hurdat_atl AL101936 17.5000 -43.2000 HU 65 1 11 283
1936239N13335 1936 41 NA NA NOT_NAMED 1936-08-28 21:00:00 TS 17.5998 -43.7227 main 1693 1671 P_____________ AL101936 17.5998 -43.7227 HU 67 1 10 282
1936239N13335 1936 41 NA NA NOT_NAMED 1936-08-29 00:00:00 TS 17.7000 -44.2000 70 hurdat_atl main 1671 1657 O_____________ hurdat_atl AL101936 17.7000 -44.2000 HU 70 1 9 285
1936239N13335 1936 41 NA NA NOT_NAMED 1936-08-29 03:00:00 TS 17.8423 -44.6575 main 1652 1644 P_____________ AL101936 17.8423 -44.6575 HU 72 1 9 289
1936239N13335 1936 41 NA NA NOT_NAMED 1936-08-29 06:00:00 TS 18.0000 -45.1000 75 hurdat_atl main 1649 1637 O_____________ hurdat_atl AL101936 18.0000 -45.1000 HU 75 1 9 290
1936239N13335 1936 41 NA NA NOT_NAMED 1936-08-29 09:00:00 TS 18.1499 -45.5501 main 1632 1627 P_____________ AL101936 18.1499 -45.5501 HU 75 1 9 289
1936239N13335 1936 41 NA NA NOT_NAMED 1936-08-29 12:00:00 TS 18.3000 -46.0000 75 hurdat_atl main 1632 1622 O_____________ hurdat_atl AL101936 18.3000 -46.0000 HU 75 1 9 289
1936239N13335 1936 41 NA NA NOT_NAMED 1936-08-29 15:00:00 TS 18.4499 -46.4501 main 1618 1615 P_____________ AL101936 18.4499 -46.4501 HU 75 1 9 289
1936239N13335 1936 41 NA NA NOT_NAMED 1936-08-29 18:00:00 TS 18.6000 -46.9000 75 hurdat_atl main 1621 1612 O_____________ hurdat_atl AL101936 18.6000 -46.9000 HU 75 1 9 289
1936239N13335 1936 41 NA NA NOT_NAMED 1936-08-29 21:00:00 TS 18.7499 -47.3501 main 1610 1610 P_____________ AL101936 18.7499 -47.3501 HU 77 1 9 289
1936239N13335 1936 41 NA NA NOT_NAMED 1936-08-30 00:00:00 TS 18.9000 -47.8000 80 hurdat_atl main 1612 1603 O_____________ hurdat_atl AL101936 18.9000 -47.8000 HU 80 1 9 289
1936239N13335 1936 41 NA NA NOT_NAMED 1936-08-30 03:00:00 TS 19.0424 -48.2501 main 1600 1597 P_____________ AL101936 19.0424 -48.2501 HU 80 1 9 289
1936239N13335 1936 41 NA NA NOT_NAMED 1936-08-30 06:00:00 TS 19.2000 -48.7000 80 hurdat_atl main 1603 1598 O_____________ hurdat_atl AL101936 19.2000 -48.7000 HU 80 1 9 291
1936239N13335 1936 41 NA NA NOT_NAMED 1936-08-30 09:00:00 TS 19.3774 -49.1502 main 1597 1576 P_____________ AL101936 19.3774 -49.1502 HU 80 1 9 295
1936239N13335 1936 41 NA NA NOT_NAMED 1936-08-30 12:00:00 TS 19.6000 -49.6000 80 hurdat_atl main 1576 1557 O_____________ hurdat_atl AL101936 19.6000 -49.6000 HU 80 1 10 300
1936239N13335 1936 41 NA NA NOT_NAMED 1936-08-30 15:00:00 TS 19.8699 -50.0502 main 1557 1547 P_____________ AL101936 19.8699 -50.0502 HU 80 1 10 305
1936239N13335 1936 41 NA NA NOT_NAMED 1936-08-30 18:00:00 TS 20.2000 -50.5000 80 hurdat_atl main 1547 1539 O_____________ hurdat_atl AL101936 20.2000 -50.5000 HU 80 1 11 310
1936239N13335 1936 41 NA NA NOT_NAMED 1936-08-30 21:00:00 TS 20.5774 -50.9502 main 1539 1514 P_____________ AL101936 20.5774 -50.9502 HU 82 1 12 313
1936239N13335 1936 41 NA NA NOT_NAMED 1936-08-31 00:00:00 TS 21.0000 -51.4000 85 hurdat_atl main 1514 1478 O_____________ hurdat_atl AL101936 21.0000 -51.4000 HU 85 2 12 316
1936239N13335 1936 41 NA NA NOT_NAMED 1936-08-31 03:00:00 TS 21.4424 -51.8502 main 1470 1439 P_____________ AL101936 21.4424 -51.8502 HU 85 2 12 317
1936239N13335 1936 41 NA NA NOT_NAMED 1936-08-31 06:00:00 TS 21.9000 -52.3000 85 hurdat_atl main 1441 1413 O_____________ hurdat_atl AL101936 21.9000 -52.3000 HU 85 2 12 318
1936239N13335 1936 41 NA NA NOT_NAMED 1936-08-31 09:00:00 TS 22.3573 -52.7428 main 1416 1380 P_____________ AL101936 22.3573 -52.7428 HU 85 2 12 317
1936239N13335 1936 41 NA NA NOT_NAMED 1936-08-31 12:00:00 TS 22.8000 -53.2000 85 hurdat_atl main 1380 1347 O_____________ hurdat_atl AL101936 22.8000 -53.2000 HU 85 2 12 314
1936239N13335 1936 41 NA NA NOT_NAMED 1936-08-31 15:00:00 TS 23.2074 -53.6928 main 1347 1317 P_____________ AL101936 23.2074 -53.6928 HU 87 2 12 311
1936239N13335 1936 41 NA NA NOT_NAMED 1936-08-31 18:00:00 TS 23.6000 -54.2000 90 hurdat_atl main 1317 1285 O_____________ hurdat_atl AL101936 23.6000 -54.2000 HU 90 2 12 310
1936239N13335 1936 41 NA NA NOT_NAMED 1936-08-31 21:00:00 TS 23.9924 -54.7078 main 1290 1267 P_____________ AL101936 23.9924 -54.7078 HU 90 2 12 311
1936239N13335 1936 41 NA NA NOT_NAMED 1936-09-01 00:00:00 TS 24.4000 -55.2000 90 hurdat_atl main 1267 1250 O_____________ hurdat_atl AL101936 24.4000 -55.2000 HU 90 2 12 315
1936239N13335 1936 41 NA NA NOT_NAMED 1936-09-01 03:00:00 TS 24.8423 -55.6578 main 1247 1239 P_____________ AL101936 24.8423 -55.6578 HU 90 2 12 318
1936239N13335 1936 41 NA NA NOT_NAMED 1936-09-01 06:00:00 TS 25.3000 -56.1000 90 hurdat_atl main 1246 1235 O_____________ hurdat_atl AL101936 25.3000 -56.1000 HU 90 2 12 318
1936239N13335 1936 41 NA NA NOT_NAMED 1936-09-01 09:00:00 TS 25.7425 -56.5652 main 1234 1233 P_____________ AL101936 25.7425 -56.5652 HU 90 2 12 318
1936239N13335 1936 41 NA NA NOT_NAMED 1936-09-01 12:00:00 TS 26.2000 -57.0000 90 hurdat_atl main 1241 1241 O_____________ hurdat_atl AL101936 26.2000 -57.0000 HU 90 2 12 323
1936239N13335 1936 41 NA NA NOT_NAMED 1936-09-01 15:00:00 TS 26.6923 -57.3728 main 1251 1251 P_____________ AL101936 26.6923 -57.3728 HU 92 2 12 328
1936239N13335 1936 41 NA NA NOT_NAMED 1936-09-01 18:00:00 TS 27.2000 -57.7000 95 hurdat_atl main 1273 1273 O_____________ hurdat_atl AL101936 27.2000 -57.7000 HU 95 2 12 329
1936239N13335 1936 41 NA NA NOT_NAMED 1936-09-01 21:00:00 TS 27.7001 -58.0522 main 1291 1291 P_____________ AL101936 27.7001 -58.0522 HU 95 2 11 332
1936239N13335 1936 41 NA NA NOT_NAMED 1936-09-02 00:00:00 TS 28.2000 -58.3000 95 hurdat_atl main 1323 1323 O_____________ hurdat_atl AL101936 28.2000 -58.3000 HU 95 2 10 344
1936239N13335 1936 41 NA NA NOT_NAMED 1936-09-02 03:00:00 TS 28.6999 -58.3678 main 1364 1364 P_____________ AL101936 28.6999 -58.3678 HU 95 2 10 1
1936239N13335 1936 41 NA NA NOT_NAMED 1936-09-02 06:00:00 TS 29.2000 -58.3000 95 hurdat_atl main 1415 1415 O_____________ hurdat_atl AL101936 29.2000 -58.3000 HU 95 2 10 8
1936239N13335 1936 41 NA NA NOT_NAMED 1936-09-02 09:00:00 TS 29.6774 -58.2020 main 1468 1468 P_____________ AL101936 29.6774 -58.2020 HU 95 2 10 15
1936239N13335 1936 41 NA NA NOT_NAMED 1936-09-02 12:00:00 TS 30.2000 -58.0000 95 hurdat_atl main 1525 1525 O_____________ hurdat_atl AL101936 30.2000 -58.0000 HU 95 2 12 20
1936239N13335 1936 41 NA NA NOT_NAMED 1936-09-02 15:00:00 TS 30.7971 -57.7310 main 1564 1508 P_____________ AL101936 30.7971 -57.7310 HU 95 2 14 25
1936239N13335 1936 41 NA NA NOT_NAMED 1936-09-02 18:00:00 TS 31.5000 -57.3000 95 hurdat_atl main 1508 1454 O_____________ hurdat_atl AL101936 31.5000 -57.3000 HU 95 2 18 31
1936239N13335 1936 41 NA NA NOT_NAMED 1936-09-02 21:00:00 TS 32.3128 -56.6601 main 1454 1410 P_____________ AL101936 32.3128 -56.6601 HU 95 2 21 35
1936239N13335 1936 41 NA NA NOT_NAMED 1936-09-03 00:00:00 TS 33.2000 -55.9000 95 hurdat_atl main 1406 1333 O_____________ hurdat_atl AL101936 33.2000 -55.9000 HU 95 2 22 34
1936239N13335 1936 41 NA NA NOT_NAMED 1936-09-03 03:00:00 TS 34.1516 -55.1873 main 1322 1268 P_____________ AL101936 34.1516 -55.1873 HU 95 2 22 35
1936239N13335 1936 41 NA NA NOT_NAMED 1936-09-03 06:00:00 TS 35.0000 -54.4000 95 hurdat_atl main 1268 1234 O_____________ hurdat_atl AL101936 35.0000 -54.4000 HU 95 2 20 45
1936239N13335 1936 41 NA NA NOT_NAMED 1936-09-03 09:00:00 TS 35.5602 -53.4629 main 1223 1180 P_____________ AL101936 35.5602 -53.4629 HU 95 2 18 57
1936239N13335 1936 41 NA NA NOT_NAMED 1936-09-03 12:00:00 TS 36.0000 -52.5000 95 hurdat_atl main 1180 1130 O_____________ hurdat_atl AL101936 36.0000 -52.5000 HU 95 2 18 58
1936239N13335 1936 41 NA NA NOT_NAMED 1936-09-03 15:00:00 TS 36.4992 -51.6263 main 1131 1085 P_____________ AL101936 36.4992 -51.6263 HU 95 2 17 54
1936239N13335 1936 41 NA NA NOT_NAMED 1936-09-03 18:00:00 TS 37.0000 -50.8000 95 hurdat_atl main 1085 1045 O_____________ hurdat_atl AL101936 37.0000 -50.8000 HU 95 2 16 53
1936239N13335 1936 41 NA NA NOT_NAMED 1936-09-03 21:00:00 TS 37.4918 -49.9911 main 1045 1010 P_____________ AL101936 37.4918 -49.9911 HU 95 2 16 52
1936239N13335 1936 41 NA NA NOT_NAMED 1936-09-04 00:00:00 TS 38.0000 -49.2000 95 hurdat_atl main 1010 978 O_____________ hurdat_atl AL101936 38.0000 -49.2000 HU 95 2 16 50
1936239N13335 1936 41 NA NA NOT_NAMED 1936-09-04 03:00:00 TS 38.5420 -48.3990 main 981 949 P_____________ AL101936 38.5420 -48.3990 HU 95 2 17 49
1936239N13335 1936 41 NA NA NOT_NAMED 1936-09-04 06:00:00 TS 39.1000 -47.6000 95 hurdat_atl main 949 929 O_____________ hurdat_atl AL101936 39.1000 -47.6000 HU 95 2 17 48
1936239N13335 1936 41 NA NA NOT_NAMED 1936-09-04 09:00:00 TS 39.6568 -46.8063 main 924 915 P_____________ AL101936 39.6568 -46.8063 HU 95 2 17 48
1936239N13335 1936 41 NA NA NOT_NAMED 1936-09-04 12:00:00 TS 40.2000 -46.0000 95 hurdat_atl main 916 910 O_____________ hurdat_atl AL101936 40.2000 -46.0000 HU 95 2 16 50
1936239N13335 1936 41 NA NA NOT_NAMED 1936-09-04 15:00:00 TS 40.7140 -45.1784 main 916 913 P_____________ AL101936 40.7140 -45.1784 HU 92 2 16 52
1936239N13335 1936 41 NA NA NOT_NAMED 1936-09-04 18:00:00 TS 41.2000 -44.3000 90 hurdat_atl main 929 927 O_____________ hurdat_atl AL101936 41.2000 -44.3000 HU 90 2 17 56
1936239N13335 1936 41 NA NA NOT_NAMED 1936-09-04 21:00:00 TS 41.6487 -43.3575 main 955 954 P_____________ AL101936 41.6487 -43.3575 HU 90 2 17 59
1936239N13335 1936 41 NA NA NOT_NAMED 1936-09-05 00:00:00 TS 42.1000 -42.3000 90 hurdat_atl main 993 993 O_____________ hurdat_atl AL101936 42.1000 -42.3000 HU 90 2 19 62
1936239N13335 1936 41 NA NA NOT_NAMED 1936-09-05 03:00:00 TS 42.5546 -41.0916 main 1045 1045 P_____________ AL101936 42.5546 -41.0916 HU 87 2 21 61
1936239N13335 1936 41 NA NA NOT_NAMED 1936-09-05 06:00:00 TS 43.1000 -39.8000 85 hurdat_atl main 1108 1108 O_____________ hurdat_atl AL101936 43.1000 -39.8000 HU 85 2 22 56
1936239N13335 1936 41 NA NA NOT_NAMED 1936-09-05 09:00:00 TS 43.8106 -38.5284 main 1164 1159 P_____________ AL101936 43.8106 -38.5284 HU 82 1 24 51
1936239N13335 1936 41 NA NA NOT_NAMED 1936-09-05 12:00:00 TS 44.6000 -37.2000 80 hurdat_atl main 1224 1224 O_____________ hurdat_atl AL101936 44.6000 -37.2000 HU 80 1 24 51
1936239N13335 1936 41 NA NA NOT_NAMED 1936-09-05 15:00:00 TS 45.3418 -35.9199 main 1295 1295 P_____________ AL101936 45.3418 -35.9199 HU 77 1 25 54
1936239N13335 1936 41 NA NA NOT_NAMED 1936-09-05 18:00:00 TS 46.1000 -34.3000 75 hurdat_atl main 1392 1392 O_____________ hurdat_atl AL101936 46.1000 -34.3000 HU 75 1 31 60
1936239N13335 1936 41 NA NA NOT_NAMED 1936-09-05 21:00:00 TS 46.8709 -32.0309 main 1546 1439 P_____________ AL101936 46.8709 -32.0309 HU 72 1 37 66
1936239N13335 1936 41 NA NA NOT_NAMED 1936-09-06 00:00:00 ET 47.6000 -29.3000 70 hurdat_atl main 1425 1209 O_____________ hurdat_atl AL101936 47.6000 -29.3000 EX 70 -4 40 71
1936239N13335 1936 41 NA NA NOT_NAMED 1936-09-06 03:00:00 ET 48.2140 -26.3509 main 1203 982 P_____________ AL101936 48.2140 -26.3509 EX 65 -4 42 73
1936239N13335 1936 41 NA NA NOT_NAMED 1936-09-06 06:00:00 ET 48.8000 -23.3000 60 hurdat_atl main 969 756 O_____________ hurdat_atl AL101936 48.8000 -23.3000 EX 60 -4 41 73
1936239N13335 1936 41 NA NA NOT_NAMED 1936-09-06 09:00:00 ET 49.4309 -20.3202 main 743 535 P_____________ AL101936 49.4309 -20.3202 EX 60 -4 40 71
1936239N13335 1936 41 NA NA NOT_NAMED 1936-09-06 12:00:00 ET 50.1000 -17.5000 60 hurdat_atl main 529 343 O_____________ hurdat_atl AL101936 50.1000 -17.5000 EX 60 -4 37 68
1936239N13335 1936 41 NA NA NOT_NAMED 1936-09-06 15:00:00 ET 50.7999 -14.9387 main 330 154 P_____________ AL101936 50.7999 -14.9387 EX 57 -4 34 66
1936239N13335 1936 41 NA NA NOT_NAMED 1936-09-06 18:00:00 ET 51.5000 -12.5000 55 hurdat_atl main 147 O_____________ hurdat_atl AL101936 51.5000 -12.5000 EX 55 -4 33 65

About IBTrACS Database

This database is a web-friendly format of International Best Track Archive for Climate Stewardship (IBTrACS), a global best track data archive curated by NOAA dating back to 1842.

Updated: 2021-12-03